sensor_id;sensor_type;location;lat;lon;timestamp;temperature;humidity
41928;DHT22;27616;51.420;6.788;2023-10-09T00:01:52;14.90;99.90
41928;DHT22;27616;51.420;6.788;2023-10-09T00:04:19;14.90;99.90
41928;DHT22;27616;51.420;6.788;2023-10-09T00:06:46;14.80;99.90
41928;DHT22;27616;51.420;6.788;2023-10-09T00:09:12;14.90;99.90
41928;DHT22;27616;51.420;6.788;2023-10-09T00:11:56;14.80;99.90
41928;DHT22;27616;51.420;6.788;2023-10-09T00:14:27;14.70;99.90
41928;DHT22;27616;51.420;6.788;2023-10-09T00:16:56;14.60;99.90
41928;DHT22;27616;51.420;6.788;2023-10-09T00:19:43;14.50;99.90
41928;DHT22;27616;51.420;6.788;2023-10-09T00:22:09;14.50;99.90
41928;DHT22;27616;51.420;6.788;2023-10-09T00:24:45;14.50;99.90
41928;DHT22;27616;51.420;6.788;2023-10-09T00:27:15;14.50;99.90
41928;DHT22;27616;51.420;6.788;2023-10-09T00:29:45;14.60;99.90
41928;DHT22;27616;51.420;6.788;2023-10-09T00:32:14;14.60;99.90
41928;DHT22;27616;51.420;6.788;2023-10-09T00:34:43;14.70;99.90
41928;DHT22;27616;51.420;6.788;2023-10-09T00:37:09;14.70;99.90
41928;DHT22;27616;51.420;6.788;2023-10-09T00:39:42;14.70;99.90
41928;DHT22;27616;51.420;6.788;2023-10-09T00:42:11;14.90;99.90
41928;DHT22;27616;51.420;6.788;2023-10-09T00:44:53;14.90;99.90
41928;DHT22;27616;51.420;6.788;2023-10-09T00:47:19;15.00;99.90
41928;DHT22;27616;51.420;6.788;2023-10-09T00:49:59;15.10;99.90
41928;DHT22;27616;51.420;6.788;2023-10-09T00:52:29;15.10;99.90
41928;DHT22;27616;51.420;6.788;2023-10-09T00:55:03;15.00;99.90
41928;DHT22;27616;51.420;6.788;2023-10-09T00:57:34;14.90;99.90
41928;DHT22;27616;51.420;6.788;2023-10-09T01:00:03;14.90;99.90
41928;DHT22;27616;51.420;6.788;2023-10-09T01:02:38;15.00;99.90
41928;DHT22;27616;51.420;6.788;2023-10-09T01:05:08;15.00;99.90
41928;DHT22;27616;51.420;6.788;2023-10-09T01:07:54;15.00;99.90
41928;DHT22;27616;51.420;6.788;2023-10-09T01:10:23;14.90;99.90
41928;DHT22;27616;51.420;6.788;2023-10-09T01:12:51;14.90;99.90
41928;DHT22;27616;51.420;6.788;2023-10-09T01:15:20;14.80;99.90
41928;DHT22;27616;51.420;6.788;2023-10-09T01:18:02;14.90;99.90
41928;DHT22;27616;51.420;6.788;2023-10-09T01:20:28;14.90;99.90
41928;DHT22;27616;51.420;6.788;2023-10-09T01:23:01;14.90;99.90
41928;DHT22;27616;51.420;6.788;2023-10-09T01:25:26;14.90;99.90
41928;DHT22;27616;51.420;6.788;2023-10-09T01:28:07;14.80;99.90
41928;DHT22;27616;51.420;6.788;2023-10-09T01:30:32;14.70;99.90
41928;DHT22;27616;51.420;6.788;2023-10-09T01:32:58;14.70;99.90
41928;DHT22;27616;51.420;6.788;2023-10-09T01:35:37;14.60;99.90
41928;DHT22;27616;51.420;6.788;2023-10-09T01:38:12;14.60;99.90
41928;DHT22;27616;51.420;6.788;2023-10-09T01:40:40;14.60;99.90
41928;DHT22;27616;51.420;6.788;2023-10-09T01:43:06;14.50;99.90
41928;DHT22;27616;51.420;6.788;2023-10-09T01:45:36;14.40;99.90
41928;DHT22;27616;51.420;6.788;2023-10-09T01:48:12;14.30;99.90
41928;DHT22;27616;51.420;6.788;2023-10-09T01:50:40;14.30;99.90
41928;DHT22;27616;51.420;6.788;2023-10-09T01:53:10;14.20;99.90
41928;DHT22;27616;51.420;6.788;2023-10-09T01:55:42;14.10;99.90
41928;DHT22;27616;51.420;6.788;2023-10-09T01:58:11;14.10;99.90
41928;DHT22;27616;51.420;6.788;2023-10-09T02:00:50;14.00;99.90
41928;DHT22;27616;51.420;6.788;2023-10-09T02:03:28;14.00;99.90
41928;DHT22;27616;51.420;6.788;2023-10-09T02:05:55;14.10;99.90
41928;DHT22;27616;51.420;6.788;2023-10-09T02:08:28;14.20;99.90
41928;DHT22;27616;51.420;6.788;2023-10-09T02:10:55;14.10;99.90
41928;DHT22;27616;51.420;6.788;2023-10-09T02:13:22;14.10;99.90
41928;DHT22;27616;51.420;6.788;2023-10-09T02:15:58;14.10;99.90
41928;DHT22;27616;51.420;6.788;2023-10-09T02:18:38;14.00;99.90
41928;DHT22;27616;51.420;6.788;2023-10-09T02:21:19;14.00;99.90
41928;DHT22;27616;51.420;6.788;2023-10-09T02:23:54;14.00;99.90
41928;DHT22;27616;51.420;6.788;2023-10-09T02:26:22;14.10;99.90
41928;DHT22;27616;51.420;6.788;2023-10-09T02:28:55;14.10;99.90
41928;DHT22;27616;51.420;6.788;2023-10-09T02:31:27;14.10;99.90
41928;DHT22;27616;51.420;6.788;2023-10-09T02:34:01;14.00;99.90
41928;DHT22;27616;51.420;6.788;2023-10-09T02:36:30;13.90;99.90
41928;DHT22;27616;51.420;6.788;2023-10-09T02:38:56;13.90;99.90
41928;DHT22;27616;51.420;6.788;2023-10-09T02:41:22;13.80;99.90
41928;DHT22;27616;51.420;6.788;2023-10-09T02:43:49;13.80;99.90
41928;DHT22;27616;51.420;6.788;2023-10-09T02:46:21;13.90;99.90
41928;DHT22;27616;51.420;6.788;2023-10-09T02:48:55;13.80;99.90
41928;DHT22;27616;51.420;6.788;2023-10-09T02:51:25;13.90;99.90
41928;DHT22;27616;51.420;6.788;2023-10-09T02:53:57;14.00;99.90
41928;DHT22;27616;51.420;6.788;2023-10-09T02:56:25;14.10;99.90
41928;DHT22;27616;51.420;6.788;2023-10-09T02:59:01;14.10;99.90
41928;DHT22;27616;51.420;6.788;2023-10-09T03:01:31;14.10;99.90
41928;DHT22;27616;51.420;6.788;2023-10-09T03:03:57;14.10;99.90
41928;DHT22;27616;51.420;6.788;2023-10-09T03:06:25;14.10;99.90
41928;DHT22;27616;51.420;6.788;2023-10-09T03:08:57;14.10;99.90
41928;DHT22;27616;51.420;6.788;2023-10-09T03:11:23;14.00;99.90
41928;DHT22;27616;51.420;6.788;2023-10-09T03:13:49;14.10;99.90
41928;DHT22;27616;51.420;6.788;2023-10-09T03:16:15;14.10;99.90
41928;DHT22;27616;51.420;6.788;2023-10-09T03:18:49;14.20;99.90
41928;DHT22;27616;51.420;6.788;2023-10-09T03:21:15;14.10;99.90
41928;DHT22;27616;51.420;6.788;2023-10-09T03:23:41;14.10;99.90
41928;DHT22;27616;51.420;6.788;2023-10-09T03:26:09;14.10;99.90
41928;DHT22;27616;51.420;6.788;2023-10-09T03:28:36;14.20;99.90
41928;DHT22;27616;51.420;6.788;2023-10-09T03:31:02;14.30;99.90
41928;DHT22;27616;51.420;6.788;2023-10-09T03:33:29;14.30;99.90
41928;DHT22;27616;51.420;6.788;2023-10-09T03:35:59;14.30;99.90
41928;DHT22;27616;51.420;6.788;2023-10-09T03:38:26;14.30;99.90
41928;DHT22;27616;51.420;6.788;2023-10-09T03:40:54;14.30;99.90
41928;DHT22;27616;51.420;6.788;2023-10-09T03:43:20;14.30;99.90
41928;DHT22;27616;51.420;6.788;2023-10-09T03:45:47;14.30;99.90
41928;DHT22;27616;51.420;6.788;2023-10-09T03:48:19;14.50;99.90
41928;DHT22;27616;51.420;6.788;2023-10-09T03:50:52;14.50;99.90
41928;DHT22;27616;51.420;6.788;2023-10-09T03:53:35;14.50;99.90
41928;DHT22;27616;51.420;6.788;2023-10-09T03:56:08;14.50;99.90
41928;DHT22;27616;51.420;6.788;2023-10-09T03:58:43;14.40;99.90
41928;DHT22;27616;51.420;6.788;2023-10-09T04:01:09;14.50;99.90
41928;DHT22;27616;51.420;6.788;2023-10-09T04:03:58;14.50;99.90
41928;DHT22;27616;51.420;6.788;2023-10-09T04:06:28;14.50;99.90
41928;DHT22;27616;51.420;6.788;2023-10-09T04:09:08;14.50;99.90
41928;DHT22;27616;51.420;6.788;2023-10-09T04:11:43;14.40;99.90
41928;DHT22;27616;51.420;6.788;2023-10-09T04:14:13;14.40;99.90
41928;DHT22;27616;51.420;6.788;2023-10-09T04:16:49;14.40;99.90
41928;DHT22;27616;51.420;6.788;2023-10-09T04:19:28;14.50;99.90
41928;DHT22;27616;51.420;6.788;2023-10-09T04:21:55;14.60;99.90
41928;DHT22;27616;51.420;6.788;2023-10-09T04:24:24;14.60;99.90
41928;DHT22;27616;51.420;6.788;2023-10-09T04:26:50;14.70;99.90
41928;DHT22;27616;51.420;6.788;2023-10-09T04:29:23;14.80;99.90
41928;DHT22;27616;51.420;6.788;2023-10-09T04:32:04;14.90;99.90
41928;DHT22;27616;51.420;6.788;2023-10-09T04:34:33;14.90;99.90
41928;DHT22;27616;51.420;6.788;2023-10-09T04:37:13;15.00;99.90
41928;DHT22;27616;51.420;6.788;2023-10-09T04:39:39;15.10;99.90
41928;DHT22;27616;51.420;6.788;2023-10-09T04:42:13;15.10;99.90
41928;DHT22;27616;51.420;6.788;2023-10-09T04:44:44;15.10;99.90
41928;DHT22;27616;51.420;6.788;2023-10-09T04:47:30;15.20;99.90
41928;DHT22;27616;51.420;6.788;2023-10-09T04:50:03;15.20;99.90
41928;DHT22;27616;51.420;6.788;2023-10-09T04:52:33;15.20;99.90
41928;DHT22;27616;51.420;6.788;2023-10-09T04:55:00;15.20;99.90
41928;DHT22;27616;51.420;6.788;2023-10-09T04:57:35;15.30;99.90
41928;DHT22;27616;51.420;6.788;2023-10-09T05:00:18;15.50;99.90
41928;DHT22;27616;51.420;6.788;2023-10-09T05:02:54;15.50;99.90
41928;DHT22;27616;51.420;6.788;2023-10-09T05:05:26;15.50;99.90
41928;DHT22;27616;51.420;6.788;2023-10-09T05:10:48;15.50;99.90
41928;DHT22;27616;51.420;6.788;2023-10-09T05:13:23;15.50;99.90
41928;DHT22;27616;51.420;6.788;2023-10-09T05:16:05;15.60;99.90
41928;DHT22;27616;51.420;6.788;2023-10-09T05:18:31;15.50;99.90
41928;DHT22;27616;51.420;6.788;2023-10-09T05:21:03;15.50;99.90
41928;DHT22;27616;51.420;6.788;2023-10-09T05:23:38;15.40;99.90
41928;DHT22;27616;51.420;6.788;2023-10-09T05:26:10;15.40;99.90
41928;DHT22;27616;51.420;6.788;2023-10-09T05:28:54;15.30;99.90
41928;DHT22;27616;51.420;6.788;2023-10-09T05:31:23;15.30;99.90
41928;DHT22;27616;51.420;6.788;2023-10-09T05:34:08;15.30;99.90
41928;DHT22;27616;51.420;6.788;2023-10-09T05:36:33;15.40;99.90
41928;DHT22;27616;51.420;6.788;2023-10-09T05:39:01;15.40;99.90
41928;DHT22;27616;51.420;6.788;2023-10-09T05:41:45;15.40;99.90
41928;DHT22;27616;51.420;6.788;2023-10-09T05:44:14;15.50;99.90
41928;DHT22;27616;51.420;6.788;2023-10-09T05:46:58;15.50;99.90
41928;DHT22;27616;51.420;6.788;2023-10-09T05:49:44;15.70;99.90
41928;DHT22;27616;51.420;6.788;2023-10-09T05:52:13;15.70;99.90
41928;DHT22;27616;51.420;6.788;2023-10-09T05:55:14;15.60;99.90
41928;DHT22;27616;51.420;6.788;2023-10-09T05:57:55;15.60;99.90
41928;DHT22;27616;51.420;6.788;2023-10-09T06:00:25;15.60;99.90
41928;DHT22;27616;51.420;6.788;2023-10-09T06:03:10;15.60;99.90
41928;DHT22;27616;51.420;6.788;2023-10-09T06:05:49;15.60;99.90
41928;DHT22;27616;51.420;6.788;2023-10-09T06:08:25;15.60;99.90
41928;DHT22;27616;51.420;6.788;2023-10-09T06:11:11;15.60;99.90
41928;DHT22;27616;51.420;6.788;2023-10-09T06:13:57;15.60;99.90
41928;DHT22;27616;51.420;6.788;2023-10-09T06:16:32;15.60;99.90
41928;DHT22;27616;51.420;6.788;2023-10-09T06:19:04;15.70;99.90
41928;DHT22;27616;51.420;6.788;2023-10-09T06:21:55;15.60;99.90
41928;DHT22;27616;51.420;6.788;2023-10-09T06:24:40;15.70;99.90
41928;DHT22;27616;51.420;6.788;2023-10-09T06:27:18;15.70;99.90
41928;DHT22;27616;51.420;6.788;2023-10-09T06:29:57;15.60;99.90
41928;DHT22;27616;51.420;6.788;2023-10-09T06:32:42;15.70;99.90
41928;DHT22;27616;51.420;6.788;2023-10-09T06:35:20;15.60;99.90
41928;DHT22;27616;51.420;6.788;2023-10-09T06:37:57;15.80;99.90
41928;DHT22;27616;51.420;6.788;2023-10-09T06:40:38;15.90;99.90
41928;DHT22;27616;51.420;6.788;2023-10-09T06:43:42;16.00;99.90
41928;DHT22;27616;51.420;6.788;2023-10-09T06:46:15;16.10;99.90
41928;DHT22;27616;51.420;6.788;2023-10-09T06:48:47;16.20;99.90
41928;DHT22;27616;51.420;6.788;2023-10-09T06:51:22;16.30;99.90
41928;DHT22;27616;51.420;6.788;2023-10-09T06:53:54;16.30;99.90
41928;DHT22;27616;51.420;6.788;2023-10-09T06:56:24;16.20;99.90
41928;DHT22;27616;51.420;6.788;2023-10-09T06:58:50;16.20;99.90
41928;DHT22;27616;51.420;6.788;2023-10-09T07:01:27;16.10;99.90
41928;DHT22;27616;51.420;6.788;2023-10-09T07:03:58;16.20;99.90
41928;DHT22;27616;51.420;6.788;2023-10-09T07:06:47;16.20;99.90
41928;DHT22;27616;51.420;6.788;2023-10-09T07:09:14;16.20;99.90
41928;DHT22;27616;51.420;6.788;2023-10-09T07:11:42;16.20;99.90
41928;DHT22;27616;51.420;6.788;2023-10-09T07:14:12;16.30;99.90
41928;DHT22;27616;51.420;6.788;2023-10-09T07:16:56;16.40;99.90
41928;DHT22;27616;51.420;6.788;2023-10-09T07:19:31;16.50;99.90
41928;DHT22;27616;51.420;6.788;2023-10-09T07:22:03;16.50;99.90
41928;DHT22;27616;51.420;6.788;2023-10-09T07:24:31;16.60;99.90
41928;DHT22;27616;51.420;6.788;2023-10-09T07:27:09;16.60;99.90
41928;DHT22;27616;51.420;6.788;2023-10-09T07:29:36;16.60;99.90
41928;DHT22;27616;51.420;6.788;2023-10-09T07:32:19;16.50;99.90
41928;DHT22;27616;51.420;6.788;2023-10-09T07:34:48;16.60;99.90
41928;DHT22;27616;51.420;6.788;2023-10-09T07:37:23;16.70;99.90
41928;DHT22;27616;51.420;6.788;2023-10-09T07:39:50;16.70;99.90
41928;DHT22;27616;51.420;6.788;2023-10-09T07:42:23;16.80;99.90
41928;DHT22;27616;51.420;6.788;2023-10-09T07:45:10;16.80;99.90
41928;DHT22;27616;51.420;6.788;2023-10-09T07:47:49;16.80;99.90
41928;DHT22;27616;51.420;6.788;2023-10-09T07:50:36;16.80;99.90
41928;DHT22;27616;51.420;6.788;2023-10-09T07:53:14;16.90;99.90
41928;DHT22;27616;51.420;6.788;2023-10-09T07:55:40;16.90;99.90
41928;DHT22;27616;51.420;6.788;2023-10-09T07:58:14;16.90;99.90
41928;DHT22;27616;51.420;6.788;2023-10-09T08:00:39;16.90;99.90
41928;DHT22;27616;51.420;6.788;2023-10-09T08:03:24;17.00;99.90
41928;DHT22;27616;51.420;6.788;2023-10-09T08:05:52;16.90;99.90
41928;DHT22;27616;51.420;6.788;2023-10-09T08:08:19;16.90;99.90
41928;DHT22;27616;51.420;6.788;2023-10-09T08:10:54;16.90;99.90
41928;DHT22;27616;51.420;6.788;2023-10-09T08:13:38;16.90;99.90
41928;DHT22;27616;51.420;6.788;2023-10-09T08:16:30;17.00;99.90
41928;DHT22;27616;51.420;6.788;2023-10-09T08:19:04;17.10;99.90
41928;DHT22;27616;51.420;6.788;2023-10-09T08:21:56;17.10;99.90
41928;DHT22;27616;51.420;6.788;2023-10-09T08:24:45;17.10;99.90
41928;DHT22;27616;51.420;6.788;2023-10-09T08:27:18;17.10;99.90
41928;DHT22;27616;51.420;6.788;2023-10-09T08:29:56;17.20;99.90
41928;DHT22;27616;51.420;6.788;2023-10-09T08:32:41;17.40;99.90
41928;DHT22;27616;51.420;6.788;2023-10-09T08:35:09;17.50;99.90
41928;DHT22;27616;51.420;6.788;2023-10-09T08:37:53;17.50;99.90
41928;DHT22;27616;51.420;6.788;2023-10-09T08:40:20;17.40;99.90
41928;DHT22;27616;51.420;6.788;2023-10-09T08:42:53;17.40;99.90
41928;DHT22;27616;51.420;6.788;2023-10-09T08:45:22;17.30;99.90
41928;DHT22;27616;51.420;6.788;2023-10-09T08:47:56;17.40;99.90
41928;DHT22;27616;51.420;6.788;2023-10-09T08:50:22;17.40;99.90
41928;DHT22;27616;51.420;6.788;2023-10-09T08:52:54;17.30;99.90
41928;DHT22;27616;51.420;6.788;2023-10-09T08:55:20;17.30;99.90
41928;DHT22;27616;51.420;6.788;2023-10-09T08:57:46;17.30;99.90
41928;DHT22;27616;51.420;6.788;2023-10-09T09:00:19;17.30;99.90
41928;DHT22;27616;51.420;6.788;2023-10-09T09:02:50;17.40;99.90
41928;DHT22;27616;51.420;6.788;2023-10-09T09:05:19;17.40;99.90
41928;DHT22;27616;51.420;6.788;2023-10-09T09:07:50;17.40;99.90
41928;DHT22;27616;51.420;6.788;2023-10-09T09:10:28;17.50;99.90
41928;DHT22;27616;51.420;6.788;2023-10-09T09:13:02;17.60;99.90
41928;DHT22;27616;51.420;6.788;2023-10-09T09:15:29;17.70;99.90
41928;DHT22;27616;51.420;6.788;2023-10-09T09:18:06;17.80;99.90
41928;DHT22;27616;51.420;6.788;2023-10-09T09:20:32;17.90;99.90
41928;DHT22;27616;51.420;6.788;2023-10-09T09:23:09;18.20;99.90
41928;DHT22;27616;51.420;6.788;2023-10-09T09:25:42;18.40;99.90
41928;DHT22;27616;51.420;6.788;2023-10-09T09:28:14;18.60;99.90
41928;DHT22;27616;51.420;6.788;2023-10-09T09:30:45;18.50;99.90
41928;DHT22;27616;51.420;6.788;2023-10-09T09:33:25;18.60;99.90
41928;DHT22;27616;51.420;6.788;2023-10-09T09:36:08;18.50;99.90
41928;DHT22;27616;51.420;6.788;2023-10-09T09:38:37;18.60;99.90
41928;DHT22;27616;51.420;6.788;2023-10-09T09:41:16;18.50;99.90
41928;DHT22;27616;51.420;6.788;2023-10-09T09:43:56;18.50;99.90
41928;DHT22;27616;51.420;6.788;2023-10-09T09:46:23;18.50;99.90
41928;DHT22;27616;51.420;6.788;2023-10-09T09:49:09;18.50;99.90
41928;DHT22;27616;51.420;6.788;2023-10-09T09:51:47;18.40;99.90
41928;DHT22;27616;51.420;6.788;2023-10-09T09:54:14;18.40;99.90
41928;DHT22;27616;51.420;6.788;2023-10-09T09:56:44;18.40;99.90
41928;DHT22;27616;51.420;6.788;2023-10-09T09:59:18;18.40;99.90
41928;DHT22;27616;51.420;6.788;2023-10-09T10:01:55;18.40;99.90
41928;DHT22;27616;51.420;6.788;2023-10-09T10:04:26;18.50;99.90
41928;DHT22;27616;51.420;6.788;2023-10-09T10:06:53;18.80;99.90
41928;DHT22;27616;51.420;6.788;2023-10-09T10:09:37;19.10;99.90
41928;DHT22;27616;51.420;6.788;2023-10-09T10:12:07;19.20;99.90
41928;DHT22;27616;51.420;6.788;2023-10-09T10:14:54;19.30;99.90
41928;DHT22;27616;51.420;6.788;2023-10-09T10:20:30;19.40;99.90
41928;DHT22;27616;51.420;6.788;2023-10-09T10:23:26;19.40;99.90
41928;DHT22;27616;51.420;6.788;2023-10-09T10:26:19;19.50;99.90
41928;DHT22;27616;51.420;6.788;2023-10-09T10:29:17;19.40;99.90
41928;DHT22;27616;51.420;6.788;2023-10-09T10:31:56;19.50;99.90
41928;DHT22;27616;51.420;6.788;2023-10-09T10:34:24;19.40;99.90
41928;DHT22;27616;51.420;6.788;2023-10-09T10:36:53;19.20;99.90
41928;DHT22;27616;51.420;6.788;2023-10-09T10:39:26;19.30;99.90
41928;DHT22;27616;51.420;6.788;2023-10-09T10:42:10;19.40;99.90
41928;DHT22;27616;51.420;6.788;2023-10-09T10:44:55;19.50;99.90
41928;DHT22;27616;51.420;6.788;2023-10-09T10:47:27;19.50;99.90
41928;DHT22;27616;51.420;6.788;2023-10-09T10:50:01;19.60;99.90
41928;DHT22;27616;51.420;6.788;2023-10-09T10:52:45;19.60;99.90
41928;DHT22;27616;51.420;6.788;2023-10-09T10:55:23;19.50;99.90
41928;DHT22;27616;51.420;6.788;2023-10-09T10:57:55;19.50;99.90
41928;DHT22;27616;51.420;6.788;2023-10-09T11:00:28;19.60;99.90
41928;DHT22;27616;51.420;6.788;2023-10-09T11:03:22;19.60;99.90
41928;DHT22;27616;51.420;6.788;2023-10-09T11:06:07;19.60;99.90
41928;DHT22;27616;51.420;6.788;2023-10-09T11:08:49;19.60;99.90
41928;DHT22;27616;51.420;6.788;2023-10-09T11:11:22;19.60;99.90
41928;DHT22;27616;51.420;6.788;2023-10-09T11:13:48;19.50;99.90
41928;DHT22;27616;51.420;6.788;2023-10-09T11:16:25;19.70;99.90
41928;DHT22;27616;51.420;6.788;2023-10-09T11:19:13;19.90;99.90
41928;DHT22;27616;51.420;6.788;2023-10-09T11:21:59;20.10;99.90
41928;DHT22;27616;51.420;6.788;2023-10-09T11:24:32;20.10;99.90
41928;DHT22;27616;51.420;6.788;2023-10-09T11:27:05;20.10;99.90
41928;DHT22;27616;51.420;6.788;2023-10-09T11:29:32;20.20;99.90
41928;DHT22;27616;51.420;6.788;2023-10-09T11:32:18;20.20;99.90
41928;DHT22;27616;51.420;6.788;2023-10-09T11:34:45;20.20;99.90
41928;DHT22;27616;51.420;6.788;2023-10-09T11:37:23;20.20;99.90
41928;DHT22;27616;51.420;6.788;2023-10-09T11:40:31;20.30;99.90
41928;DHT22;27616;51.420;6.788;2023-10-09T11:43:15;20.40;99.90
41928;DHT22;27616;51.420;6.788;2023-10-09T11:45:41;20.30;99.90
41928;DHT22;27616;51.420;6.788;2023-10-09T11:48:19;20.50;99.90
41928;DHT22;27616;51.420;6.788;2023-10-09T11:50:59;20.70;99.90
41928;DHT22;27616;51.420;6.788;2023-10-09T11:53:28;20.70;99.90
41928;DHT22;27616;51.420;6.788;2023-10-09T11:55:53;20.80;99.90
41928;DHT22;27616;51.420;6.788;2023-10-09T11:58:20;21.00;99.90
41928;DHT22;27616;51.420;6.788;2023-10-09T12:03:16;21.00;99.90
41928;DHT22;27616;51.420;6.788;2023-10-09T12:05:42;20.80;99.90
41928;DHT22;27616;51.420;6.788;2023-10-09T12:08:12;20.70;99.90
41928;DHT22;27616;51.420;6.788;2023-10-09T12:10:41;20.60;99.90
41928;DHT22;27616;51.420;6.788;2023-10-09T12:13:06;20.50;99.90
41928;DHT22;27616;51.420;6.788;2023-10-09T12:15:33;20.40;99.90
41928;DHT22;27616;51.420;6.788;2023-10-09T12:18:06;20.30;99.90
41928;DHT22;27616;51.420;6.788;2023-10-09T12:20:40;20.30;99.90
41928;DHT22;27616;51.420;6.788;2023-10-09T12:23:06;20.50;99.90
41928;DHT22;27616;51.420;6.788;2023-10-09T12:25:33;20.50;99.90
41928;DHT22;27616;51.420;6.788;2023-10-09T12:28:01;20.50;99.90
41928;DHT22;27616;51.420;6.788;2023-10-09T12:30:28;20.50;99.90
41928;DHT22;27616;51.420;6.788;2023-10-09T12:32:57;20.50;99.90
41928;DHT22;27616;51.420;6.788;2023-10-09T12:35:26;20.40;99.90
41928;DHT22;27616;51.420;6.788;2023-10-09T12:37:53;20.40;99.90
41928;DHT22;27616;51.420;6.788;2023-10-09T12:40:23;20.50;99.90
41928;DHT22;27616;51.420;6.788;2023-10-09T12:42:52;20.50;99.90
41928;DHT22;27616;51.420;6.788;2023-10-09T12:45:19;20.60;99.90
41928;DHT22;27616;51.420;6.788;2023-10-09T12:47:45;20.70;99.90
41928;DHT22;27616;51.420;6.788;2023-10-09T12:50:13;20.70;99.90
41928;DHT22;27616;51.420;6.788;2023-10-09T12:52:40;20.70;99.90
41928;DHT22;27616;51.420;6.788;2023-10-09T12:55:06;20.70;99.90
41928;DHT22;27616;51.420;6.788;2023-10-09T12:57:35;20.80;99.90
41928;DHT22;27616;51.420;6.788;2023-10-09T13:00:02;20.70;99.90
41928;DHT22;27616;51.420;6.788;2023-10-09T13:02:36;20.70;99.90
41928;DHT22;27616;51.420;6.788;2023-10-09T13:05:02;20.80;99.90
41928;DHT22;27616;51.420;6.788;2023-10-09T13:07:29;20.80;99.90
41928;DHT22;27616;51.420;6.788;2023-10-09T13:09:55;20.70;99.90
41928;DHT22;27616;51.420;6.788;2023-10-09T13:12:39;20.80;99.90
41928;DHT22;27616;51.420;6.788;2023-10-09T13:15:10;20.80;99.90
41928;DHT22;27616;51.420;6.788;2023-10-09T13:17:37;21.00;99.90
41928;DHT22;27616;51.420;6.788;2023-10-09T13:20:04;21.10;99.90
41928;DHT22;27616;51.420;6.788;2023-10-09T13:22:44;21.10;99.90
41928;DHT22;27616;51.420;6.788;2023-10-09T13:25:14;21.10;99.90
41928;DHT22;27616;51.420;6.788;2023-10-09T13:27:44;21.20;99.90
41928;DHT22;27616;51.420;6.788;2023-10-09T13:30:19;21.30;99.90
41928;DHT22;27616;51.420;6.788;2023-10-09T13:32:51;21.30;99.90
41928;DHT22;27616;51.420;6.788;2023-10-09T13:35:20;21.30;99.90
41928;DHT22;27616;51.420;6.788;2023-10-09T13:37:53;21.20;99.90
41928;DHT22;27616;51.420;6.788;2023-10-09T13:40:22;21.10;99.90
41928;DHT22;27616;51.420;6.788;2023-10-09T13:42:57;21.10;99.90
41928;DHT22;27616;51.420;6.788;2023-10-09T13:45:27;21.20;99.90
41928;DHT22;27616;51.420;6.788;2023-10-09T13:47:57;21.20;99.90
41928;DHT22;27616;51.420;6.788;2023-10-09T13:50:26;21.20;99.90
41928;DHT22;27616;51.420;6.788;2023-10-09T13:52:58;21.20;99.90
41928;DHT22;27616;51.420;6.788;2023-10-09T13:55:24;21.20;99.90
41928;DHT22;27616;51.420;6.788;2023-10-09T13:57:57;21.20;99.90
41928;DHT22;27616;51.420;6.788;2023-10-09T14:00:23;21.20;99.90
41928;DHT22;27616;51.420;6.788;2023-10-09T14:03:00;21.20;99.90
41928;DHT22;27616;51.420;6.788;2023-10-09T14:05:29;21.20;99.90
41928;DHT22;27616;51.420;6.788;2023-10-09T14:07:55;21.20;99.90
41928;DHT22;27616;51.420;6.788;2023-10-09T14:10:26;21.20;99.90
41928;DHT22;27616;51.420;6.788;2023-10-09T14:12:55;21.10;99.90
41928;DHT22;27616;51.420;6.788;2023-10-09T14:15:23;21.10;99.90
41928;DHT22;27616;51.420;6.788;2023-10-09T14:17:48;21.10;99.90
41928;DHT22;27616;51.420;6.788;2023-10-09T14:20:21;21.00;99.90
41928;DHT22;27616;51.420;6.788;2023-10-09T14:23:03;20.90;99.90
41928;DHT22;27616;51.420;6.788;2023-10-09T14:25:38;21.00;99.90
41928;DHT22;27616;51.420;6.788;2023-10-09T14:28:06;20.90;99.90
41928;DHT22;27616;51.420;6.788;2023-10-09T14:30:38;21.00;99.90
41928;DHT22;27616;51.420;6.788;2023-10-09T14:33:11;21.00;99.90
41928;DHT22;27616;51.420;6.788;2023-10-09T14:35:39;20.90;99.90
41928;DHT22;27616;51.420;6.788;2023-10-09T14:38:05;20.80;99.90
41928;DHT22;27616;51.420;6.788;2023-10-09T14:40:41;20.90;99.90
41928;DHT22;27616;51.420;6.788;2023-10-09T14:43:08;21.00;99.90
41928;DHT22;27616;51.420;6.788;2023-10-09T14:45:37;20.90;99.90
41928;DHT22;27616;51.420;6.788;2023-10-09T14:48:03;20.90;99.90
41928;DHT22;27616;51.420;6.788;2023-10-09T14:50:28;20.80;99.90
41928;DHT22;27616;51.420;6.788;2023-10-09T14:52:54;20.80;99.90
41928;DHT22;27616;51.420;6.788;2023-10-09T14:55:19;20.80;99.90
41928;DHT22;27616;51.420;6.788;2023-10-09T14:57:53;20.60;99.90
41928;DHT22;27616;51.420;6.788;2023-10-09T15:00:18;20.60;99.90
41928;DHT22;27616;51.420;6.788;2023-10-09T15:02:49;20.50;99.90
41928;DHT22;27616;51.420;6.788;2023-10-09T15:05:16;20.40;99.90
41928;DHT22;27616;51.420;6.788;2023-10-09T15:07:42;20.50;99.90
41928;DHT22;27616;51.420;6.788;2023-10-09T15:10:08;20.50;99.90
41928;DHT22;27616;51.420;6.788;2023-10-09T15:12:35;20.40;99.90
41928;DHT22;27616;51.420;6.788;2023-10-09T15:15:09;20.40;99.90
41928;DHT22;27616;51.420;6.788;2023-10-09T15:17:39;20.40;99.90
41928;DHT22;27616;51.420;6.788;2023-10-09T15:20:12;20.30;99.90
41928;DHT22;27616;51.420;6.788;2023-10-09T15:22:43;20.30;99.90
41928;DHT22;27616;51.420;6.788;2023-10-09T15:25:09;20.30;99.90
41928;DHT22;27616;51.420;6.788;2023-10-09T15:27:40;20.20;99.90
41928;DHT22;27616;51.420;6.788;2023-10-09T15:30:07;20.30;99.90
41928;DHT22;27616;51.420;6.788;2023-10-09T15:32:40;20.40;99.90
41928;DHT22;27616;51.420;6.788;2023-10-09T15:35:07;20.40;99.90
41928;DHT22;27616;51.420;6.788;2023-10-09T15:37:36;20.30;99.90
41928;DHT22;27616;51.420;6.788;2023-10-09T15:40:02;20.30;99.90
41928;DHT22;27616;51.420;6.788;2023-10-09T15:42:40;20.30;99.90
41928;DHT22;27616;51.420;6.788;2023-10-09T15:45:06;20.30;99.90
41928;DHT22;27616;51.420;6.788;2023-10-09T15:47:32;20.30;99.90
41928;DHT22;27616;51.420;6.788;2023-10-09T15:50:02;20.30;99.90
41928;DHT22;27616;51.420;6.788;2023-10-09T15:52:29;20.30;99.90
41928;DHT22;27616;51.420;6.788;2023-10-09T15:54:54;20.20;99.90
41928;DHT22;27616;51.420;6.788;2023-10-09T15:57:21;20.20;99.90
41928;DHT22;27616;51.420;6.788;2023-10-09T15:59:47;20.20;99.90
41928;DHT22;27616;51.420;6.788;2023-10-09T16:02:15;20.20;99.90
41928;DHT22;27616;51.420;6.788;2023-10-09T16:04:42;20.20;99.90
41928;DHT22;27616;51.420;6.788;2023-10-09T16:07:08;20.20;99.90
41928;DHT22;27616;51.420;6.788;2023-10-09T16:09:35;20.20;99.90
41928;DHT22;27616;51.420;6.788;2023-10-09T16:12:05;20.20;99.90
41928;DHT22;27616;51.420;6.788;2023-10-09T16:14:31;20.10;99.90